Time;durP1;ratioP1;P1;durP2;ratioP2;P2;SDS_P1;SDS_P2;PMS_P1;PMS_P2;Temp;Humidity;BMP_temperature;BMP_pressure;BME280_temperature;BME280_humidity;BME280_pressure;Samples;Min_cycle;Max_cycle;Signal;HPM_P1;HPM_P2
2021/11/07 00:00:16;;;;;;;;;16.33;14.67;;;;;11.61;65.45;102275.84;5015683;28;45290;-74
2021/11/07 00:03:02;;;;;;;;;14.00;12.00;;;;;11.62;65.23;102275.03;5017861;28;45435;-73
2021/11/07 00:05:39;;;;;;;;;14.75;14.75;;;;;11.63;65.20;102277.72;5019564;28;45385;-73
2021/11/07 00:08:54;;;;;;;;;17.50;15.50;;;;;11.64;64.98;102276.84;5019102;28;46690;-73
2021/11/07 00:10:58;;;;;;;;;21.50;14.25;;;;;11.62;65.04;102264.44;5018640;28;45480;-74
2021/11/07 00:13:25;;;;;;;;;16.75;15.00;;;;;11.62;65.01;102265.34;5017096;28;45507;-74
2021/11/07 00:15:51;;;;;;;;;18.75;16.00;;;;;11.55;65.00;102251.00;5018943;28;45318;-73
2021/11/07 00:18:21;;;;;;;;;13.33;13.33;;;;;11.58;64.84;102251.97;5018527;28;46596;-73
2021/11/07 00:20:57;;;;;;;;;17.67;11.67;;;;;11.63;65.13;102258.28;5018883;28;45295;-74
2021/11/07 00:23:43;;;;;;;;;17.00;15.00;;;;;11.58;64.85;102239.63;5018743;28;45341;-74
2021/11/07 00:28:39;;;;;;;;;16.25;14.75;;;;;11.65;64.92;102252.19;5019149;28;46163;-73
2021/11/07 00:31:20;;;;;;;;;14.33;14.33;;;;;11.65;64.84;102253.94;5018865;28;45228;-74
2021/11/07 00:36:38;;;;;;;;;16.33;14.00;;;;;11.63;64.88;102250.34;5018474;28;45319;-74
2021/11/07 00:41:36;;;;;;;;;16.00;14.25;;;;;11.68;64.77;102252.28;5018567;28;46147;-73
2021/11/07 00:46:46;;;;;;;;;13.25;12.25;;;;;11.70;64.74;102250.56;5018416;28;45457;-73
2021/11/07 00:49:17;;;;;;;;;16.33;13.00;;;;;11.74;64.97;102240.97;5017677;28;47355;-74
2021/11/07 00:54:25;;;;;;;;;16.00;12.00;;;;;11.78;64.63;102234.94;5018959;28;45575;-73
2021/11/07 00:56:57;;;;;;;;;11.00;11.00;;;;;11.78;64.76;102230.53;5018523;28;45588;-73
2021/11/07 01:02:07;;;;;;;;;18.67;12.00;;;;;11.74;64.59;102214.50;5018202;28;45532;-74
2021/11/07 01:04:33;;;;;;;;;16.67;12.33;;;;;11.79;64.40;102219.09;5017870;28;45500;-74
2021/11/07 01:06:58;;;;;;;;;14.67;11.33;;;;;11.80;64.57;102212.03;5017962;28;45484;-74
2021/11/07 01:09:23;;;;;;;;;11.33;11.33;;;;;11.79;64.57;102207.59;5018452;28;47424;-73
2021/11/07 01:11:49;;;;;;;;;10.00;9.67;;;;;11.80;64.83;102212.94;5017878;28;45433;-73
2021/11/07 01:14:15;;;;;;;;;13.00;11.33;;;;;11.80;64.82;102207.63;5017251;28;45243;-73
2021/11/07 01:16:40;;;;;;;;;12.33;10.00;;;;;11.79;64.86;102197.03;5018262;28;45600;-74
2021/11/07 01:19:06;;;;;;;;;10.33;9.00;;;;;11.83;64.70;102204.22;5017974;28;46358;-74
2021/11/07 01:21:35;;;;;;;;;12.00;10.67;;;;;11.79;64.71;102194.38;5017989;28;45453;-73
2021/11/07 01:24:07;;;;;;;;;12.00;12.00;;;;;11.82;65.00;102186.53;5017870;28;45410;-73
2021/11/07 01:26:43;;;;;;;;;12.00;10.00;;;;;11.81;64.84;102182.06;5017641;28;45607;-73
2021/11/07 01:29:15;;;;;;;;;12.33;9.00;;;;;11.77;64.84;102169.59;5017429;28;46762;-74
2021/11/07 01:31:41;;;;;;;;;14.67;12.00;;;;;11.76;65.22;102157.22;5017943;28;45199;-73
2021/11/07 01:34:10;;;;;;;;;16.67;13.33;;;;;11.76;65.03;102158.13;5017413;28;45276;-74
2021/11/07 01:39:47;;;;;;;;;15.67;10.00;;;;;11.73;65.10;102142.19;4998782;28;46607;-74
2021/11/07 01:42:35;;;;;;;;;11.33;11.33;;;;;11.76;65.40;102141.34;5017336;28;45544;-74
2021/11/07 01:45:03;;;;;;;;;11.00;9.00;;;;;11.76;65.27;102138.69;5017524;28;45210;-73
2021/11/07 01:47:29;;;;;;;;;9.67;9.67;;;;;11.75;65.48;102136.91;5017321;28;45497;-74
2021/11/07 01:49:55;;;;;;;;;10.00;8.00;;;;;11.77;65.48;102132.56;5017817;28;46682;-74
2021/11/07 01:52:21;;;;;;;;;10.67;9.67;;;;;11.77;65.93;102132.56;5017278;28;45277;-73
2021/11/07 01:57:15;;;;;;;;;13.67;10.33;;;;;11.77;66.27;102132.56;5016134;28;45435;-73
2021/11/07 01:59:52;;;;;;;;;10.33;10.33;;;;;11.79;65.87;102134.41;5016722;28;46789;-74
2021/11/07 02:02:18;;;;;;;;;11.33;11.33;;;;;11.81;65.90;102134.44;5016264;28;45341;-74
2021/11/07 02:04:44;;;;;;;;;11.00;10.00;;;;;11.82;65.83;102124.78;5017511;28;45276;-74
2021/11/07 02:07:10;;;;;;;;;9.00;9.00;;;;;11.86;66.05;102124.91;5017796;28;45507;-74
2021/11/07 02:09:35;;;;;;;;;10.33;9.00;;;;;11.88;66.10;102123.22;5016372;28;47446;-74
2021/11/07 02:12:01;;;;;;;;;8.67;8.67;;;;;11.90;66.02;102123.25;5016291;28;45529;-74
2021/11/07 02:14:26;;;;;;;;;11.00;8.67;;;;;11.88;66.13;102115.28;5017698;28;45523;-74
2021/11/07 02:16:52;;;;;;;;;9.00;9.00;;;;;11.92;66.50;102114.47;5016902;28;52133;-73
2021/11/07 02:19:18;;;;;;;;;9.67;7.33;;;;;11.94;66.80;102112.78;5017817;28;47456;-74
2021/11/07 02:21:43;;;;;;;;;9.67;9.67;;;;;11.96;67.44;102110.16;5016529;28;45425;-74
2021/11/07 02:24:09;;;;;;;;;10.67;8.67;;;;;11.96;67.28;102116.34;5017027;28;45372;-73
2021/11/07 02:26:34;;;;;;;;;9.00;9.00;;;;;11.92;69.10;102111.81;5016078;28;45182;-73
2021/11/07 02:29:00;;;;;;;;;9.67;9.00;;;;;11.95;68.02;102109.28;5017417;28;46551;-74
2021/11/07 02:31:26;;;;;;;;;9.67;9.33;;;;;11.95;68.41;102117.22;5027291;22;45552;-74
2021/11/07 02:33:52;;;;;;;;;11.00;10.00;;;;;11.94;68.28;102110.13;5016959;28;45250;-74
2021/11/07 02:36:18;;;;;;;;;10.67;8.67;;;;;11.88;68.44;102091.44;5016704;28;46000;-74
2021/11/07 02:38:43;;;;;;;;;11.00;9.00;;;;;11.88;69.33;102096.75;5016996;28;47362;-74
2021/11/07 02:41:09;;;;;;;;;9.33;9.33;;;;;11.90;68.62;102089.72;5016600;28;45436;-74
2021/11/07 02:43:45;;;;;;;;;13.00;9.33;;;;;11.88;68.82;102091.44;5017449;28;45329;-74
2021/11/07 02:46:19;;;;;;;;;9.33;9.00;;;;;11.89;69.21;102090.59;5016562;28;45532;-73
2021/11/07 02:48:46;;;;;;;;;11.67;10.00;;;;;11.90;69.24;102084.44;5016956;28;46442;-74
2021/11/07 02:51:11;;;;;;;;;9.00;9.00;;;;;11.93;69.16;102081.88;5015921;28;46686;-74
2021/11/07 02:53:37;;;;;;;;;14.33;8.67;;;;;11.92;69.33;102082.72;5016381;28;52260;-74
2021/11/07 02:56:03;;;;;;;;;9.00;9.00;;;;;11.96;69.89;102081.03;5016774;28;45333;-74
2021/11/07 02:58:28;;;;;;;;;10.33;9.00;;;;;11.98;70.43;102074.03;5016111;28;47539;-73
2021/11/07 03:00:53;;;;;;;;;9.00;7.67;;;;;11.95;69.41;102069.56;5016366;28;61872;-74
2021/11/07 03:03:19;;;;;;;;;9.00;9.00;;;;;11.95;69.67;102063.38;5015398;28;53528;-75
2021/11/07 03:05:44;;;;;;;;;10.00;8.33;;;;;12.01;69.91;102069.72;5016577;28;45468;-74
2021/11/07 03:08:10;;;;;;;;;11.67;9.67;;;;;12.03;69.71;102065.34;5016426;28;46622;-74
2021/11/07 03:10:35;;;;;;;;;12.00;9.00;;;;;12.03;70.11;102068.00;5015910;28;45247;-74
2021/11/07 03:13:06;;;;;;;;;10.00;10.00;;;;;12.01;70.67;102060.88;5015664;28;45546;-74
2021/11/07 03:15:33;;;;;;;;;16.33;8.00;;;;;11.98;70.19;102056.38;5016474;28;45500;-74
2021/11/07 03:17:59;;;;;;;;;10.00;9.00;;;;;11.97;70.20;102059.91;5015849;28;47493;-74
2021/11/07 03:20:24;;;;;;;;;9.33;8.33;;;;;11.98;69.85;102068.72;5016489;28;45316;-74
2021/11/07 03:22:50;;;;;;;;;10.67;10.00;;;;;11.97;69.94;102057.25;5016260;28;45215;-74
2021/11/07 03:25:15;;;;;;;;;13.67;10.00;;;;;11.98;70.71;102059.03;5015962;28;45404;-73
2021/11/07 03:27:43;;;;;;;;;13.00;10.67;;;;;12.01;70.43;102060.88;5015166;28;46481;-74
2021/11/07 03:30:25;;;;;;;;;12.67;9.00;;;;;12.02;70.48;102055.63;5016238;28;45553;-74
2021/11/07 03:32:52;;;;;;;;;9.67;9.67;;;;;12.04;70.44;102061.88;5016134;28;45643;-74
2021/11/07 03:35:18;;;;;;;;;11.67;9.00;;;;;12.03;70.55;102046.81;5016563;28;45569;-74
2021/11/07 03:37:55;;;;;;;;;11.00;10.33;;;;;12.04;70.60;102051.28;5012586;28;45828;-74
2021/11/07 03:40:20;;;;;;;;;9.00;8.00;;;;;12.07;70.66;102047.78;5013231;28;45251;-74
2021/11/07 03:42:46;;;;;;;;;10.67;9.33;;;;;12.08;70.71;102036.34;5015912;28;45455;-74
2021/11/07 03:45:11;;;;;;;;;9.67;9.67;;;;;12.09;70.46;102040.81;5015892;28;45283;-74
2021/11/07 03:47:37;;;;;;;;;12.67;10.67;;;;;12.09;70.82;102032.84;5015524;28;47337;-74
2021/11/07 03:50:05;;;;;;;;;9.67;9.67;;;;;11.93;70.66;102017.44;5014951;28;60695;-73
2021/11/07 03:52:32;;;;;;;;;11.67;10.00;;;;;12.06;71.03;102038.97;5015482;28;45453;-74
2021/11/07 03:54:57;;;;;;;;;11.67;10.00;;;;;12.07;71.12;102047.78;5015696;28;45338;-74
2021/11/07 03:57:22;;;;;;;;;12.00;9.00;;;;;12.03;71.56;102036.22;5014462;28;46470;-74
2021/11/07 03:59:49;;;;;;;;;12.33;9.00;;;;;12.10;70.91;102041.69;5007312;28;45136;-74
2021/11/07 04:02:14;;;;;;;;;9.67;8.67;;;;;12.11;71.14;102046.13;5015705;28;45471;-74
2021/11/07 04:04:40;;;;;;;;;9.33;8.67;;;;;12.03;71.01;102022.97;5015392;28;45531;-74
2021/11/07 04:07:05;;;;;;;;;11.00;10.00;;;;;12.13;71.05;102031.16;5015208;28;45519;-74
2021/11/07 04:09:31;;;;;;;;;11.00;10.00;;;;;12.14;71.28;102030.28;5015263;28;57659;-73
2021/11/07 04:11:59;;;;;;;;;9.00;9.00;;;;;12.17;71.03;102035.69;5015206;28;50459;-74
2021/11/07 04:14:24;;;;;;;;;11.00;8.33;;;;;12.17;71.18;102036.56;5014671;28;45514;-74
2021/11/07 04:16:50;;;;;;;;;11.33;11.00;;;;;12.15;70.98;102024.16;5015295;28;47203;-74
2021/11/07 04:19:15;;;;;;;;;9.00;9.00;;;;;12.19;71.08;102021.59;5015827;28;45194;-74
2021/11/07 04:21:44;;;;;;;;;10.00;8.33;;;;;12.18;71.07;102024.22;5015339;28;45762;-74
2021/11/07 04:24:10;;;;;;;;;9.67;9.00;;;;;12.23;71.42;102022.56;5014147;28;45388;-73
2021/11/07 04:26:35;;;;;;;;;9.00;9.00;;;;;12.22;71.52;102026.97;5011681;28;46459;-74
2021/11/07 04:29:01;;;;;;;;;13.00;9.00;;;;;12.24;71.52;102017.31;5014755;28;59498;-74
2021/11/07 04:31:26;;;;;;;;;12.00;9.00;;;;;12.26;71.33;102015.59;5015564;28;45392;-73
2021/11/07 04:33:52;;;;;;;;;6.33;6.33;;;;;12.27;71.23;102009.44;5016205;28;45526;-74
2021/11/07 04:36:17;;;;;;;;;9.33;9.00;;;;;12.27;71.45;102012.09;5027842;22;46605;-74
2021/11/07 04:38:43;;;;;;;;;8.00;8.00;;;;;12.27;71.48;102005.91;4994451;28;52519;-74
2021/11/07 04:41:16;;;;;;;;;10.00;8.00;;;;;12.28;71.40;102005.94;4995643;28;45267;-74
2021/11/07 04:43:42;;;;;;;;;9.00;9.00;;;;;12.27;71.45;101987.38;4995671;28;45520;-73
2021/11/07 04:46:07;;;;;;;;;10.67;10.00;;;;;12.33;71.40;102003.38;4995362;28;46674;-74
2021/11/07 04:48:32;;;;;;;;;9.00;6.00;;;;;12.32;71.50;101998.97;4995602;28;51880;-73
2021/11/07 04:50:58;;;;;;;;;9.33;8.00;;;;;12.35;71.35;101996.34;4998814;28;45879;-74
2021/11/07 04:53:24;;;;;;;;;9.00;9.00;;;;;12.35;71.21;101993.72;4999602;28;45431;-74
2021/11/07 04:55:52;;;;;;;;;11.67;9.00;;;;;12.36;71.38;101989.31;4999013;28;46855;-74
2021/11/07 04:58:17;;;;;;;;;11.00;7.33;;;;;12.33;71.40;101983.09;4998542;28;60238;-73
2021/11/07 05:00:43;;;;;;;;;9.33;8.67;;;;;12.31;71.40;101965.41;4998305;28;45499;-73
2021/11/07 05:03:08;;;;;;;;;10.00;8.00;;;;;12.35;71.47;101983.13;4997751;28;45318;-74
2021/11/07 05:05:34;;;;;;;;;10.67;8.33;;;;;12.40;71.81;101988.53;4998431;28;47640;-74
2021/11/07 05:07:59;;;;;;;;;9.00;6.67;;;;;12.42;71.70;101982.41;4998424;28;45429;-74
2021/11/07 05:10:25;;;;;;;;;10.00;6.00;;;;;12.41;71.63;101975.34;4998209;28;56849;-74
2021/11/07 05:12:51;;;;;;;;;10.00;7.33;;;;;12.45;71.57;101977.16;4998387;28;45275;-74
2021/11/07 05:15:16;;;;;;;;;12.00;8.33;;;;;12.47;71.50;101966.63;4997966;28;47348;-74
2021/11/07 05:17:42;;;;;;;;;8.00;8.00;;;;;12.51;71.32;101964.03;4998015;28;51748;-74
2021/11/07 05:20:08;;;;;;;;;10.00;6.00;;;;;12.51;71.52;101961.41;4997147;28;45374;-73
2021/11/07 05:22:34;;;;;;;;;10.00;9.33;;;;;12.51;71.41;101971.09;4998545;28;45556;-73
2021/11/07 05:24:59;;;;;;;;;12.00;8.33;;;;;12.48;71.37;101963.09;4997213;28;46588;-74
2021/11/07 05:27:24;;;;;;;;;11.33;6.67;;;;;12.45;71.57;101960.38;4997583;28;60297;-74
2021/11/07 05:29:50;;;;;;;;;7.00;7.00;;;;;12.48;71.91;101968.41;4997977;28;54414;-74
2021/11/07 05:32:15;;;;;;;;;6.67;6.00;;;;;12.48;71.36;101968.41;4998360;28;45200;-74
2021/11/07 05:34:41;;;;;;;;;9.00;8.00;;;;;12.45;71.45;101969.22;4997246;28;57859;-73
2021/11/07 05:37:08;;;;;;;;;12.00;5.00;;;;;12.44;71.52;101948.00;4996248;28;45339;-74
2021/11/07 05:39:33;;;;;;;;;10.33;8.33;;;;;12.43;71.74;101932.97;4997124;28;45512;-74
2021/11/07 05:41:58;;;;;;;;;9.00;9.00;;;;;12.42;71.79;101924.13;4996996;28;52856;-74
2021/11/07 05:44:24;;;;;;;;;6.33;6.33;;;;;12.48;71.65;101936.63;4996963;28;60021;-74
2021/11/07 05:46:49;;;;;;;;;9.33;6.67;;;;;12.49;71.80;101935.75;4997382;28;45749;-74
2021/11/07 05:49:15;;;;;;;;;8.67;7.67;;;;;12.50;71.68;101934.88;4997008;28;55957;-74
2021/11/07 05:51:40;;;;;;;;;10.00;7.33;;;;;12.46;71.82;101928.63;4997318;28;45510;-74
2021/11/07 05:54:05;;;;;;;;;8.00;6.00;;;;;12.47;71.76;101925.13;4997097;28;55984;-74
2021/11/07 05:56:31;;;;;;;;;10.67;8.33;;;;;12.53;72.03;101942.91;4997352;28;45512;-73
2021/11/07 05:58:57;;;;;;;;;6.67;6.67;;;;;12.53;71.96;101937.59;4997821;28;45607;-73
2021/11/07 06:01:22;;;;;;;;;12.67;10.67;;;;;12.57;71.61;101950.06;4998477;28;45536;-74
2021/11/07 06:03:47;;;;;;;;;10.00;8.67;;;;;12.57;71.89;101958.00;4997439;28;46643;-74
2021/11/07 06:06:13;;;;;;;;;11.00;9.33;;;;;12.56;71.78;101962.38;4997209;28;62398;-74
2021/11/07 06:08:38;;;;;;;;;9.33;7.33;;;;;12.57;71.94;101952.72;4996549;28;50971;-74
2021/11/07 06:11:04;;;;;;;;;13.00;7.67;;;;;12.57;71.90;101955.38;4997751;28;45328;-74
2021/11/07 06:13:29;;;;;;;;;9.00;8.00;;;;;12.52;71.85;101957.91;4997521;28;46525;-73
2021/11/07 06:15:55;;;;;;;;;9.00;6.00;;;;;12.51;71.78;101958.75;4996753;28;58543;-73
2021/11/07 06:18:21;;;;;;;;;13.33;10.00;;;;;12.50;72.76;101961.38;5118450;22;45473;-74
2021/11/07 06:20:46;;;;;;;;;11.33;9.00;;;;;12.46;71.75;101955.09;5017530;28;45539;-74
2021/11/07 06:23:11;;;;;;;;;9.33;9.00;;;;;12.46;71.84;101965.69;5017600;28;48798;-74
2021/11/07 06:25:40;;;;;;;;;9.67;9.67;;;;;12.47;72.16;101959.56;5016735;28;58899;-74
2021/11/07 06:28:06;;;;;;;;;9.00;8.00;;;;;12.46;72.20;101944.50;5016423;28;45232;-74
2021/11/07 06:30:31;;;;;;;;;9.00;6.00;;;;;12.48;72.13;101948.09;5017114;28;45341;-74
2021/11/07 06:32:57;;;;;;;;;13.00;9.67;;;;;12.48;72.12;101942.81;5016476;28;46689;-74
2021/11/07 06:35:22;;;;;;;;;9.00;8.67;;;;;12.51;72.17;101948.16;5016623;28;45537;-73
2021/11/07 06:37:48;;;;;;;;;9.00;7.00;;;;;12.53;71.90;101937.59;5016528;28;45377;-73
2021/11/07 06:40:13;;;;;;;;;9.00;7.33;;;;;12.59;71.95;101951.88;5016151;28;46548;-74
2021/11/07 06:42:39;;;;;;;;;9.00;9.00;;;;;12.62;72.07;101950.13;5016634;28;47424;-73
2021/11/07 06:45:04;;;;;;;;;11.67;9.33;;;;;12.62;72.12;101940.41;5015803;28;45542;-74
2021/11/07 06:47:30;;;;;;;;;9.00;9.00;;;;;12.63;71.96;101944.88;5016184;28;45233;-73
2021/11/07 06:49:56;;;;;;;;;9.00;8.67;;;;;12.63;72.00;101944.88;5016736;28;53253;-74
2021/11/07 06:52:21;;;;;;;;;9.33;8.33;;;;;12.65;72.07;101940.50;5016261;28;46137;-74
2021/11/07 06:54:47;;;;;;;;;9.00;9.00;;;;;12.64;72.30;101943.13;5016618;28;49684;-73
2021/11/07 06:57:13;;;;;;;;;8.33;8.33;;;;;12.68;72.38;101944.97;5015351;28;45477;-74
2021/11/07 06:59:39;;;;;;;;;13.33;10.00;;;;;12.68;72.09;101944.97;5015953;28;49996;-74
2021/11/07 07:02:05;;;;;;;;;9.67;9.00;;;;;12.68;72.75;101939.69;5016713;28;47100;-74
2021/11/07 07:04:30;;;;;;;;;10.33;9.33;;;;;12.65;72.48;101935.19;5015428;28;45298;-73
2021/11/07 07:06:56;;;;;;;;;12.33;10.00;;;;;12.64;72.38;101951.06;5016959;28;45396;-74
2021/11/07 07:09:25;;;;;;;;;11.00;8.00;;;;;12.54;72.63;101934.97;5016394;28;45349;-74
2021/11/07 07:11:56;;;;;;;;;12.00;10.67;;;;;12.56;72.76;101933.25;5015562;28;47246;-74
2021/11/07 07:15:09;;;;;;;;;9.33;9.00;;;;;12.55;73.11;101939.41;5016693;28;45487;-73
2021/11/07 07:17:27;;;;;;;;;13.00;10.33;;;;;12.54;72.83;101928.78;5011333;28;45248;-74
2021/11/07 07:22:47;;;;;;;;;11.67;10.00;;;;;12.59;73.22;101925.38;5016342;28;46566;-74
2021/11/07 07:25:38;;;;;;;;;6.33;6.33;;;;;12.58;73.13;101928.88;5015699;28;45388;-74
2021/11/07 07:28:21;;;;;;;;;11.00;11.00;;;;;12.59;73.21;101935.09;5005640;28;45371;-74
2021/11/07 07:35:40;;;;;;;;;8.33;7.67;;;;;12.54;73.35;101931.44;5016379;28;45423;-74
2021/11/07 07:38:06;;;;;;;;;12.00;9.00;;;;;12.54;73.04;101929.69;5015578;28;54951;-74
2021/11/07 07:40:31;;;;;;;;;8.67;8.00;;;;;12.65;73.27;101944.91;5013495;28;45623;-74
2021/11/07 07:42:57;;;;;;;;;10.00;9.00;;;;;12.68;73.19;101952.94;5011871;28;46425;-74
2021/11/07 07:45:22;;;;;;;;;12.00;9.67;;;;;12.65;73.50;101947.56;5012877;28;46881;-74
2021/11/07 07:47:48;;;;;;;;;12.33;10.33;;;;;12.68;73.06;101956.47;5015767;28;45436;-74
2021/11/07 07:50:16;;;;;;;;;10.33;6.33;;;;;12.70;73.33;101957.38;5015320;28;45488;-74
2021/11/07 07:52:42;;;;;;;;;9.00;9.00;;;;;12.71;73.11;101939.72;5012219;28;47591;-74
2021/11/07 07:55:08;;;;;;;;;9.00;7.33;;;;;12.71;73.42;101913.22;5015076;28;45460;-74
2021/11/07 07:57:34;;;;;;;;;9.67;7.33;;;;;12.78;73.31;101923.06;5014659;28;45399;-74
2021/11/07 07:59:59;;;;;;;;;7.00;6.00;;;;;12.80;72.91;101934.63;5012225;28;46133;-74
2021/11/07 08:02:25;;;;;;;;;8.00;8.00;;;;;12.84;73.20;101941.78;5014825;28;46594;-74
2021/11/07 08:04:52;;;;;;;;;7.00;7.00;;;;;12.84;73.26;101945.31;5013242;28;45350;-74
2021/11/07 08:07:17;;;;;;;;;7.67;7.33;;;;;12.90;73.34;101944.53;5003767;28;45523;-74
2021/11/07 08:09:43;;;;;;;;;8.33;6.33;;;;;12.89;73.21;101940.09;5012757;28;45378;-74
2021/11/07 08:12:08;;;;;;;;;8.33;7.33;;;;;12.89;73.68;101942.75;5009424;28;47368;-74
2021/11/07 08:14:35;;;;;;;;;5.33;5.33;;;;;12.90;73.33;101946.28;5013842;28;45546;-74
2021/11/07 08:17:00;;;;;;;;;8.33;7.33;;;;;12.91;72.94;101945.44;5013042;28;45463;-74
2021/11/07 08:19:26;;;;;;;;;10.00;9.00;;;;;12.93;73.18;101935.72;5014513;28;45440;-74
2021/11/07 08:21:52;;;;;;;;;7.00;4.33;;;;;12.96;73.42;101949.06;5014030;28;46515;-74
2021/11/07 08:24:17;;;;;;;;;7.67;7.00;;;;;12.99;73.55;101936.72;5016771;28;45347;-74
2021/11/07 08:26:43;;;;;;;;;7.00;5.67;;;;;12.96;73.28;101927.84;5018092;28;45456;-74
2021/11/07 08:29:10;;;;;;;;;9.00;7.67;;;;;13.04;73.22;101931.53;5018365;28;46727;-74
2021/11/07 08:31:37;;;;;;;;;6.67;6.00;;;;;13.11;73.11;101941.41;5019075;28;45973;-74
2021/11/07 08:34:04;;;;;;;;;9.00;5.33;;;;;13.11;73.10;101942.28;5018643;28;45358;-74
2021/11/07 08:39:08;;;;;;;;;5.67;5.67;;;;;13.12;73.15;101914.00;5018000;28;45496;-74
2021/11/07 08:41:34;;;;;;;;;5.67;5.67;;;;;13.14;72.80;101922.88;5015300;28;47644;-74
2021/11/07 09:05:08;;;;;;;;;8.33;6.00;;;;;13.23;73.82;101924.84;5018344;28;45490;-74
2021/11/07 09:10:03;;;;;;;;;10.00;8.33;;;;;13.26;74.38;101919.56;5016669;28;45305;-75
2021/11/07 09:12:29;;;;;;;;;10.00;8.67;;;;;13.28;73.63;101928.47;5014409;28;47824;-76
2021/11/07 09:14:54;;;;;;;;;11.67;9.33;;;;;13.30;73.94;101929.38;5016449;28;45583;-75
2021/11/07 09:17:20;;;;;;;;;6.67;6.67;;;;;13.29;74.09;101925.84;5015153;28;46337;-78
2021/11/07 09:19:48;;;;;;;;;6.00;6.00;;;;;13.28;73.74;101923.16;5015170;28;45600;-78
2021/11/07 09:22:23;;;;;;;;;6.00;4.33;;;;;13.27;73.70;101924.03;5015351;28;47489;-75
2021/11/07 09:25:01;;;;;;;;;5.00;5.00;;;;;13.17;73.86;101893.78;5014967;28;45459;-74
2021/11/07 09:30:08;;;;;;;;;7.33;6.00;;;;;13.46;74.02;101917.25;5017811;28;45480;-74
2021/11/07 09:32:44;;;;;;;;;5.33;5.00;;;;;13.60;74.08;101913.97;5014757;28;47579;-74
2021/11/07 09:35:22;;;;;;;;;9.67;9.00;;;;;13.74;73.81;101913.28;5014331;28;45417;-74
2021/11/07 09:37:52;;;;;;;;;6.33;5.00;;;;;13.86;73.65;101905.53;5014946;28;45497;-74
2021/11/07 09:40:18;;;;;;;;;7.33;6.67;;;;;13.85;73.47;101903.75;5016078;28;45609;-75
2021/11/07 09:47:54;;;;;;;;;8.00;7.00;;;;;13.86;72.74;101913.50;5012816;28;45551;-74
2021/11/07 09:50:19;;;;;;;;;7.00;6.00;;;;;13.78;72.76;101915.13;5016070;28;45491;-75
2021/11/07 09:52:49;;;;;;;;;7.67;6.00;;;;;13.82;72.77;101924.91;4997039;28;46348;-75
2021/11/07 09:55:17;;;;;;;;;6.00;5.67;;;;;13.87;72.93;101926.78;5016409;28;45365;-74
2021/11/07 09:57:43;;;;;;;;;4.00;4.00;;;;;13.96;72.78;101910.09;5016620;28;45223;-75
2021/11/07 10:00:12;;;;;;;;;7.00;7.00;;;;;14.12;73.05;101921.84;5015550;28;45420;-75
2021/11/07 10:02:38;;;;;;;;;3.33;3.33;;;;;14.24;72.52;101931.72;5015849;28;46568;-75
2021/11/07 10:05:04;;;;;;;;;4.00;3.00;;;;;14.34;71.82;101928.31;5016663;28;45416;-75
2021/11/07 10:07:33;;;;;;;;;3.00;3.00;;;;;14.45;72.09;101931.13;5017179;28;45477;-75
2021/11/07 10:10:01;;;;;;;;;5.67;5.00;;;;;14.53;72.03;101925.03;5016411;28;45452;-75
2021/11/07 10:12:37;;;;;;;;;6.00;5.00;;;;;14.54;71.29;101926.84;5015922;28;47981;-74
2021/11/07 10:15:05;;;;;;;;;5.00;5.00;;;;;14.56;71.77;101941.03;5016477;28;45646;-74
2021/11/07 10:17:51;;;;;;;;;8.67;4.33;;;;;14.50;71.57;101934.75;5016412;28;45799;-74
2021/11/07 10:20:37;;;;;;;;;8.00;4.00;;;;;14.41;71.82;101919.53;5016525;28;45608;-74
2021/11/07 10:23:19;;;;;;;;;8.00;5.67;;;;;14.37;71.96;101918.59;5016430;28;47256;-75
2021/11/07 10:25:53;;;;;;;;;5.00;5.00;;;;;14.42;71.90;101921.31;5014820;28;45455;-74
2021/11/07 10:31:29;;;;;;;;;8.33;6.00;;;;;14.41;71.48;101930.19;5012906;28;45646;-74
2021/11/07 10:39:27;;;;;;;;;7.67;7.67;;;;;14.65;71.09;101941.16;5016435;28;45425;-74
2021/11/07 10:52:47;;;;;;;;;12.00;8.00;;;;;14.65;70.75;101942.94;5016673;28;45313;-74
2021/11/07 10:55:20;;;;;;;;;13.33;12.00;;;;;14.55;70.49;101938.38;5015743;28;46627;-74
2021/11/07 10:57:48;;;;;;;;;8.33;7.00;;;;;14.40;70.67;101934.59;5016831;28;45429;-74
2021/11/07 11:00:39;;;;;;;;;7.67;4.67;;;;;14.42;71.00;101954.09;5016165;28;45423;-74
2021/11/07 11:03:18;;;;;;;;;14.33;7.33;;;;;14.44;71.67;101956.81;5016167;28;45438;-75
2021/11/07 11:06:16;;;;;;;;;9.33;8.00;;;;;14.49;71.62;101949.81;5015950;28;47391;-74
2021/11/07 11:09:01;;;;;;;;;10.00;8.00;;;;;14.58;70.99;101951.69;5008393;28;45240;-74
2021/11/07 11:11:55;;;;;;;;;12.00;9.00;;;;;14.65;70.80;101948.25;5015170;28;45579;-74
2021/11/07 11:27:27;;;;;;;;;7.00;6.00;;;;;15.06;68.68;101918.53;5015585;28;45673;-75
2021/11/07 11:32:47;;;;;;;;;9.33;7.00;;;;;14.93;67.33;101906.91;5015719;28;45124;-74
2021/11/07 11:43:03;;;;;;;;;12.00;5.00;;;;;14.96;66.85;101914.88;5016275;28;45508;-74
2021/11/07 11:45:33;;;;;;;;;5.00;5.00;;;;;15.04;66.62;101897.25;4998119;28;45248;-74
2021/11/07 11:56:01;;;;;;;;;11.00;5.67;;;;;15.42;64.69;101904.69;5014353;28;45826;-74
2021/11/07 12:01:48;;;;;;;;;6.67;5.00;;;;;15.57;64.46;101895.94;5017094;28;45371;-74
2021/11/07 12:04:26;;;;;;;;;10.67;5.67;;;;;15.59;63.78;101896.81;5018946;28;45380;-74
2021/11/07 12:06:54;;;;;;;;;9.67;5.67;;;;;15.64;63.17;101906.66;5018826;28;45510;-75
2021/11/07 12:09:25;;;;;;;;;5.67;3.00;;;;;15.57;62.41;101894.16;5019092;28;46575;-74
2021/11/07 12:12:39;;;;;;;;;11.33;5.00;;;;;15.45;62.72;101907.38;5018352;28;45692;-75
2021/11/07 12:15:29;;;;;;;;;5.33;5.00;;;;;15.57;62.19;101903.91;5016037;28;45436;-75
2021/11/07 12:18:01;;;;;;;;;5.00;4.00;;;;;15.62;62.55;101887.09;5012225;28;47416;-74
2021/11/07 12:20:28;;;;;;;;;4.67;3.00;;;;;15.71;61.91;101900.53;5017003;28;47649;-75
2021/11/07 12:23:12;;;;;;;;;5.00;4.00;;;;;15.72;61.34;101898.75;5018722;28;45404;-74
2021/11/07 12:25:37;;;;;;;;;11.67;7.00;;;;;15.66;60.05;101896.94;5018222;28;45485;-75
2021/11/07 12:28:03;;;;;;;;;11.00;5.00;;;;;15.68;59.87;101891.59;5017644;28;45502;-74
2021/11/07 12:30:29;;;;;;;;;9.00;3.00;;;;;15.60;60.72;101895.94;5015878;28;55586;-75
2021/11/07 12:33:22;;;;;;;;;8.00;5.00;;;;;15.40;61.12;101890.47;5018409;28;45447;-74
2021/11/07 12:36:36;;;;;;;;;13.00;6.00;;;;;15.24;61.86;101883.25;5018448;28;45555;-75
2021/11/07 12:41:27;;;;;;;;;11.67;7.67;;;;;15.10;61.93;101891.09;5003521;28;45253;-75
2021/11/07 12:43:59;;;;;;;;;12.33;8.00;;;;;15.15;61.72;101890.25;5017034;28;45516;-74
2021/11/07 12:49:16;;;;;;;;;8.33;4.00;;;;;15.32;61.82;101879.75;5018615;28;45311;-74
2021/11/07 12:52:05;;;;;;;;;5.00;3.33;;;;;15.41;60.31;101876.28;5016922;28;47521;-75
2021/11/07 12:54:38;;;;;;;;;8.67;3.67;;;;;15.43;60.91;101879.84;5018397;28;45339;-74
2021/11/07 12:57:11;;;;;;;;;3.67;3.33;;;;;15.43;60.74;101879.84;5017276;28;45576;-75
2021/11/07 12:59:53;;;;;;;;;9.00;5.00;;;;;15.47;60.25;101884.31;5017803;28;45392;-74
2021/11/07 13:02:19;;;;;;;;;11.33;4.00;;;;;15.52;61.07;101905.66;5018082;28;47418;-75
2021/11/07 13:04:56;;;;;;;;;13.33;8.33;;;;;15.58;60.85;101897.72;5017960;28;45520;-75
2021/11/07 13:07:29;;;;;;;;;8.00;5.00;;;;;15.60;60.04;101880.84;5016555;28;46661;-75
2021/11/07 13:10:00;;;;;;;;;4.67;2.00;;;;;15.62;59.64;101880.88;5016894;28;45608;-74
2021/11/07 13:12:43;;;;;;;;;4.67;3.00;;;;;15.61;58.52;101898.63;5014202;28;47167;-75
2021/11/07 13:29:16;;;;;;;;;8.00;5.00;;;;;15.79;58.65;101889.03;5016853;28;45528;-74
2021/11/07 13:32:00;;;;;;;;;9.00;4.00;;;;;15.85;59.02;101889.06;5017769;28;45310;-75
2021/11/07 13:34:26;;;;;;;;;5.67;4.33;;;;;15.92;57.71;101888.19;5018166;28;45830;-74
2021/11/07 13:36:52;;;;;;;;;13.33;6.00;;;;;15.92;57.82;101878.44;5017572;28;45318;-75
2021/11/07 13:39:36;;;;;;;;;7.67;4.00;;;;;15.97;58.68;101870.47;5018066;28;45615;-74
2021/11/07 13:42:22;;;;;;;;;8.00;4.00;;;;;16.05;58.38;101878.53;5016485;28;46798;-74
2021/11/07 13:44:50;;;;;;;;;7.00;3.67;;;;;16.08;57.81;101868.75;5017283;28;46549;-75